Time;durP1;ratioP1;P1;durP2;ratioP2;P2;SDS_P1;SDS_P2;PMS_P1;PMS_P2;Temp;Humidity;BMP_temperature;BMP_pressure;BME280_temperature;BME280_humidity;BME280_pressure;Samples;Min_cycle;Max_cycle;Signal;HPM_P1;HPM_P2
2022/03/09 00:01:48;;;;;;;12.77;10.35;;;-0.20;99.90;;;;;;5020591;28;20084;-76
2022/03/09 00:04:13;;;;;;;11.73;10.40;;;-0.30;99.90;;;;;;5023905;28;20490;-75
2022/03/09 00:06:39;;;;;;;12.98;10.68;;;-0.30;99.90;;;;;;5025520;28;20407;-75
2022/03/09 00:09:05;;;;;;;12.63;10.85;;;-0.40;99.90;;;;;;5022097;28;20045;-76
2022/03/09 00:11:30;;;;;;;11.40;10.15;;;-0.20;99.90;;;;;;5026316;28;20535;-76
2022/03/09 00:13:56;;;;;;;13.20;10.90;;;-0.20;99.90;;;;;;5027335;28;20476;-76
2022/03/09 00:16:22;;;;;;;14.43;11.65;;;-0.20;99.90;;;;;;5018941;28;20022;-75
2022/03/09 00:18:47;;;;;;;14.70;12.00;;;-0.40;99.90;;;;;;5026568;28;20570;-75
2022/03/09 00:21:13;;;;;;;13.85;11.82;;;-0.60;99.90;;;;;;5020391;28;20046;-75
2022/03/09 00:23:38;;;;;;;13.23;11.38;;;-0.60;99.90;;;;;;5026510;28;20052;-75
2022/03/09 00:26:04;;;;;;;16.60;13.18;;;-0.50;99.90;;;;;;5019936;28;20084;-75
2022/03/09 00:28:30;;;;;;;14.75;12.35;;;-0.60;99.90;;;;;;5027937;28;20025;-76
2022/03/09 00:30:55;;;;;;;14.73;12.73;;;-0.60;99.90;;;;;;5021792;28;20033;-76
2022/03/09 00:33:21;;;;;;;15.15;11.88;;;-0.70;99.90;;;;;;5023385;28;20025;-76
2022/03/09 00:35:46;;;;;;;13.00;10.80;;;-0.70;99.90;;;;;;5016532;28;20484;-77
2022/03/09 00:38:12;;;;;;;15.38;11.60;;;-0.70;99.90;;;;;;5022088;28;20030;-76
2022/03/09 00:40:38;;;;;;;12.15;10.85;;;-0.70;99.90;;;;;;5021727;28;20067;-76
2022/03/09 00:43:03;;;;;;;12.30;10.60;;;-0.60;99.90;;;;;;5025569;28;20503;-76
2022/03/09 00:45:29;;;;;;;18.45;16.10;;;-0.70;99.90;;;;;;5018753;28;20060;-76
2022/03/09 00:47:54;;;;;;;15.70;13.18;;;-0.60;99.90;;;;;;5011614;28;20025;-75
2022/03/09 00:50:20;;;;;;;16.15;13.98;;;-0.70;99.90;;;;;;5019676;28;20029;-76
2022/03/09 00:52:47;;;;;;;15.93;14.15;;;-0.90;99.90;;;;;;5027322;28;20494;-76
2022/03/09 00:55:13;;;;;;;17.88;14.27;;;-0.80;99.90;;;;;;5020235;28;20495;-76
2022/03/09 00:57:39;;;;;;;15.07;12.73;;;-0.80;99.90;;;;;;5026094;28;20027;-76
2022/03/09 01:00:05;;;;;;;15.45;13.20;;;-0.90;99.90;;;;;;5011968;28;20029;-76
2022/03/09 01:02:31;;;;;;;17.05;13.80;;;-1.30;99.90;;;;;;5021522;28;20430;-76
2022/03/09 01:04:57;;;;;;;17.35;13.25;;;-1.20;99.90;;;;;;5023167;28;20041;-76
2022/03/09 01:07:22;;;;;;;15.18;13.40;;;-1.30;99.90;;;;;;5021906;28;20112;-76
2022/03/09 01:09:48;;;;;;;12.57;11.27;;;-1.10;99.90;;;;;;5023031;28;20127;-76
2022/03/09 01:12:13;;;;;;;13.10;11.38;;;-1.00;99.90;;;;;;5021630;28;20084;-76
2022/03/09 01:14:39;;;;;;;14.00;11.93;;;-0.90;99.90;;;;;;5021438;28;20029;-76
2022/03/09 01:17:04;;;;;;;14.20;12.13;;;-1.10;99.90;;;;;;5023135;28;20037;-76
2022/03/09 01:19:30;;;;;;;13.52;10.93;;;-1.10;99.90;;;;;;5025926;28;20030;-76
2022/03/09 01:21:56;;;;;;;12.88;10.95;;;-1.30;99.90;;;;;;5018652;28;20369;-76
2022/03/09 01:24:22;;;;;;;13.40;11.57;;;-1.10;99.90;;;;;;5025707;28;20022;-75
2022/03/09 01:26:47;;;;;;;15.80;11.73;;;-1.00;99.90;;;;;;5018346;28;20488;-76
2022/03/09 01:29:13;;;;;;;15.00;11.70;;;-1.00;99.90;;;;;;5027974;28;20030;-76
2022/03/09 01:31:39;;;;;;;13.90;12.43;;;-1.20;99.90;;;;;;5023075;28;20030;-76
2022/03/09 01:34:04;;;;;;;14.55;11.82;;;-1.40;99.90;;;;;;5027598;28;20083;-76
2022/03/09 01:36:30;;;;;;;16.65;12.32;;;-1.30;99.90;;;;;;5015099;28;20026;-75
2022/03/09 01:38:55;;;;;;;15.13;11.85;;;-1.10;99.90;;;;;;5022782;28;20036;-76
2022/03/09 01:41:21;;;;;;;13.80;12.30;;;-1.20;99.90;;;;;;5022614;28;20151;-76
2022/03/09 01:44:09;;;;;;;14.02;12.52;;;-1.30;99.90;;;;;;5013757;28;20014;-75
2022/03/09 01:46:35;;;;;;;13.93;12.32;;;-1.40;99.90;;;;;;5028038;28;20017;-75
2022/03/09 01:49:00;;;;;;;13.38;11.88;;;-1.40;99.90;;;;;;5024337;28;20368;-76
2022/03/09 01:51:26;;;;;;;16.13;12.00;;;-1.30;99.90;;;;;;5026101;28;20089;-76
2022/03/09 01:53:52;;;;;;;13.98;12.43;;;-1.30;99.90;;;;;;5026174;28;20022;-75
2022/03/09 01:56:18;;;;;;;15.98;12.77;;;-1.60;99.90;;;;;;5026184;28;20409;-75
2022/03/09 01:58:44;;;;;;;15.95;14.27;;;-1.50;99.90;;;;;;5025884;28;20018;-76
2022/03/09 02:01:09;;;;;;;17.92;13.77;;;-1.50;99.90;;;;;;5015561;28;20026;-75
2022/03/09 02:03:35;;;;;;;17.33;13.60;;;-1.60;99.90;;;;;;5022636;28;20022;-76
2022/03/09 02:06:01;;;;;;;16.25;14.32;;;-1.70;99.90;;;;;;5014393;28;20036;-75
2022/03/09 02:11:11;;;;;;;16.23;13.63;;;-1.80;99.90;;;;;;5033203;28;20115;-74
2022/03/09 02:13:38;;;;;;;15.52;13.55;;;-1.80;99.90;;;;;;5031369;28;20496;-73
2022/03/09 02:16:04;;;;;;;15.55;12.20;;;-1.70;99.90;;;;;;5020800;28;20029;-76
2022/03/09 02:18:29;;;;;;;15.65;12.85;;;-1.90;99.90;;;;;;5019278;28;20056;-74
2022/03/09 02:21:00;;;;;;;15.27;13.30;;;-2.00;99.90;;;;;;5025649;28;20026;-74
2022/03/09 02:23:26;;;;;;;16.58;13.77;;;-1.90;99.90;;;;;;5015082;28;20030;-76
2022/03/09 02:25:52;;;;;;;14.52;12.93;;;-1.80;99.90;;;;;;5014012;28;20048;-75
2022/03/09 02:28:17;;;;;;;14.98;13.38;;;-2.00;99.90;;;;;;5019967;28;20506;-76
2022/03/09 02:30:43;;;;;;;14.45;12.45;;;-2.00;99.90;;;;;;5021122;28;20057;-75
2022/03/09 02:33:09;;;;;;;15.38;13.02;;;-2.00;99.90;;;;;;5027329;28;20034;-75
2022/03/09 02:35:34;;;;;;;14.73;12.98;;;-2.10;99.90;;;;;;5026228;28;20083;-75
2022/03/09 02:38:00;;;;;;;14.98;12.20;;;-2.10;99.90;;;;;;5013557;28;20132;-74
2022/03/09 02:40:25;;;;;;;15.13;12.52;;;-2.00;99.90;;;;;;5026115;28;20022;-75
2022/03/09 02:42:51;;;;;;;14.43;12.18;;;-1.80;99.90;;;;;;5020449;28;20017;-74
2022/03/09 02:45:17;;;;;;;15.73;12.55;;;-1.90;99.90;;;;;;5032372;28;20026;-75
2022/03/09 02:47:44;;;;;;;15.73;13.13;;;-1.90;99.90;;;;;;5020228;28;20049;-76
2022/03/09 02:50:13;;;;;;;14.57;13.00;;;-2.30;99.90;;;;;;5033495;28;20033;-78
2022/03/09 02:52:41;;;;;;;13.85;12.52;;;-2.30;99.90;;;;;;5020221;28;20040;-75
2022/03/09 02:55:07;;;;;;;14.60;12.38;;;-2.10;99.90;;;;;;5020358;28;20392;-74
2022/03/09 02:57:33;;;;;;;14.90;12.50;;;-2.20;99.90;;;;;;5006223;28;20056;-74
2022/03/09 02:59:58;;;;;;;15.73;12.90;;;-2.20;99.90;;;;;;5026736;28;20439;-75
2022/03/09 03:02:24;;;;;;;14.73;12.82;;;-2.20;99.90;;;;;;5013290;28;20036;-75
2022/03/09 03:04:50;;;;;;;15.10;13.10;;;-2.20;99.90;;;;;;5013075;28;20068;-74
2022/03/09 03:07:15;;;;;;;13.90;12.45;;;-2.20;99.90;;;;;;5013199;28;20076;-74
2022/03/09 03:09:40;;;;;;;19.35;13.20;;;-2.30;99.90;;;;;;5011857;28;20018;-74
2022/03/09 03:12:06;;;;;;;18.77;13.77;;;-2.40;99.90;;;;;;5012858;28;20387;-74
2022/03/09 03:14:32;;;;;;;15.23;13.60;;;-2.50;99.90;;;;;;5025746;28;20468;-74
2022/03/09 03:16:58;;;;;;;16.42;12.70;;;-2.50;99.90;;;;;;5017323;28;20026;-74
2022/03/09 03:19:23;;;;;;;19.52;17.35;;;-2.50;99.90;;;;;;5012946;28;20033;-75
2022/03/09 03:21:49;;;;;;;17.83;15.00;;;-2.50;99.90;;;;;;5012922;28;20045;-75
2022/03/09 03:24:14;;;;;;;16.30;13.85;;;-2.50;99.90;;;;;;5012957;28;20026;-75
2022/03/09 03:26:40;;;;;;;16.60;13.50;;;-2.50;99.90;;;;;;5017221;28;20034;-73
2022/03/09 03:29:05;;;;;;;17.23;11.93;;;-2.50;99.90;;;;;;5013009;28;20037;-73
2022/03/09 03:31:31;;;;;;;16.67;13.98;;;-2.50;99.90;;;;;;5024526;28;20060;-76
2022/03/09 03:33:57;;;;;;;18.27;13.15;;;-2.60;99.90;;;;;;5012979;28;20030;-75
2022/03/09 03:36:23;;;;;;;16.42;13.15;;;-2.60;99.90;;;;;;5024837;28;20077;-74
2022/03/09 03:38:48;;;;;;;15.65;13.40;;;-2.60;99.90;;;;;;5016351;28;20507;-73
2022/03/09 03:41:14;;;;;;;15.88;14.18;;;-2.60;99.90;;;;;;5015059;28;20607;-74
2022/03/09 03:43:39;;;;;;;15.82;14.15;;;-2.60;99.90;;;;;;5012622;28;20029;-74
2022/03/09 03:46:05;;;;;;;14.27;12.77;;;-2.70;99.90;;;;;;5018643;28;20511;-75
2022/03/09 03:48:31;;;;;;;15.50;13.68;;;-2.80;99.90;;;;;;5019980;28;20072;-75
2022/03/09 03:50:56;;;;;;;15.88;14.27;;;-2.80;99.90;;;;;;5024410;28;20025;-74
2022/03/09 03:53:22;;;;;;;14.95;13.27;;;-2.70;99.90;;;;;;5018707;28;20022;-74
2022/03/09 03:55:47;;;;;;;15.90;14.15;;;-2.70;99.90;;;;;;5016207;28;20030;-75
2022/03/09 03:58:13;;;;;;;16.42;13.88;;;-2.90;99.90;;;;;;5012942;28;20028;-75
2022/03/09 04:00:39;;;;;;;16.35;14.13;;;-2.90;99.90;;;;;;5030258;28;20431;-74
2022/03/09 04:03:04;;;;;;;15.93;14.23;;;-2.80;99.90;;;;;;5019694;28;20054;-74
2022/03/09 04:05:30;;;;;;;16.05;14.25;;;-2.80;99.90;;;;;;5012444;28;20109;-74
2022/03/09 04:07:56;;;;;;;16.55;14.70;;;-2.80;99.90;;;;;;5023002;28;20627;-74
2022/03/09 04:10:21;;;;;;;17.00;14.50;;;-2.80;99.90;;;;;;5017154;28;20026;-74
2022/03/09 04:12:47;;;;;;;17.88;15.02;;;-2.90;99.90;;;;;;5019817;28;20105;-74
2022/03/09 04:15:12;;;;;;;16.23;14.32;;;-2.90;99.90;;;;;;5012159;28;20029;-74
2022/03/09 04:17:43;;;;;;;17.30;15.27;;;-2.90;99.90;;;;;;5012184;28;20061;-75
2022/03/09 04:20:09;;;;;;;18.20;15.25;;;-3.00;99.90;;;;;;5025540;28;20049;-74
2022/03/09 04:22:35;;;;;;;16.92;15.02;;;-2.90;99.90;;;;;;5024703;28;20078;-75
2022/03/09 04:25:01;;;;;;;18.00;15.45;;;-2.90;99.90;;;;;;5018591;28;20029;-74
2022/03/09 04:27:26;;;;;;;16.90;15.13;;;-3.00;99.90;;;;;;5032277;28;20025;-74
2022/03/09 04:29:52;;;;;;;17.77;14.73;;;-3.10;99.90;;;;;;5012671;28;20037;-75
2022/03/09 04:32:17;;;;;;;18.58;14.05;;;-3.10;99.90;;;;;;5011812;28;20025;-77
2022/03/09 04:34:43;;;;;;;16.00;13.43;;;-3.00;99.90;;;;;;5025161;28;20022;-76
2022/03/09 04:37:08;;;;;;;16.65;13.75;;;-2.90;99.90;;;;;;5011020;28;20026;-75
2022/03/09 04:39:34;;;;;;;16.15;14.45;;;-2.90;99.90;;;;;;5017886;28;20499;-75
2022/03/09 04:41:59;;;;;;;17.17;15.25;;;-3.00;99.90;;;;;;5021349;28;20053;-75
2022/03/09 04:44:25;;;;;;;16.80;14.43;;;-3.10;99.90;;;;;;5015753;28;20469;-77
2022/03/09 04:46:50;;;;;;;15.60;13.85;;;-3.00;99.90;;;;;;5012048;28;20038;-76
2022/03/09 04:49:19;;;;;;;18.98;14.25;;;-3.00;99.90;;;;;;5029222;28;20025;-75
2022/03/09 04:51:44;;;;;;;15.88;14.15;;;-3.00;99.90;;;;;;5026326;28;20076;-76
2022/03/09 04:54:10;;;;;;;15.20;13.57;;;-3.00;99.90;;;;;;5016959;28;20029;-76
2022/03/09 04:56:35;;;;;;;16.13;14.30;;;-3.00;99.90;;;;;;5019856;28;20053;-77
2022/03/09 04:59:01;;;;;;;18.75;15.25;;;-3.00;99.90;;;;;;5023906;28;20030;-75
2022/03/09 05:01:26;;;;;;;38.85;27.67;;;-2.90;99.90;;;;;;5014745;28;20022;-75
2022/03/09 05:03:52;;;;;;;29.02;23.77;;;-2.90;99.90;;;;;;5016377;28;20033;-76
2022/03/09 05:06:17;;;;;;;20.00;16.02;;;-2.90;99.90;;;;;;5020243;28;20056;-75
2022/03/09 05:08:43;;;;;;;19.15;15.27;;;-2.90;99.90;;;;;;5024877;28;20030;-74
2022/03/09 05:11:09;;;;;;;17.85;15.05;;;-3.10;99.90;;;;;;5011520;28;20399;-74
2022/03/09 05:13:34;;;;;;;15.20;13.43;;;-3.10;99.90;;;;;;5014845;28;20048;-74
2022/03/09 05:16:00;;;;;;;19.10;13.07;;;-3.00;99.90;;;;;;5020347;28;20173;-75
2022/03/09 05:18:25;;;;;;;19.27;13.55;;;-3.10;99.90;;;;;;5027876;28;20025;-74
2022/03/09 05:20:51;;;;;;;18.08;13.93;;;-3.10;99.90;;;;;;5021863;28;20112;-76
2022/03/09 05:23:16;;;;;;;16.25;13.43;;;-3.00;99.90;;;;;;5015376;28;20029;-75
2022/03/09 05:25:42;;;;;;;16.50;13.40;;;-3.00;99.90;;;;;;5026416;28;20033;-75
2022/03/09 05:28:07;;;;;;;15.02;13.35;;;-3.00;99.90;;;;;;5020411;28;20031;-75
2022/03/09 05:30:33;;;;;;;15.20;12.88;;;-3.20;99.90;;;;;;5023589;28;20034;-73
2022/03/09 05:32:58;;;;;;;16.65;14.40;;;-3.10;99.90;;;;;;5014983;28;20026;-73
2022/03/09 05:35:24;;;;;;;17.00;14.23;;;-3.10;99.90;;;;;;5015549;28;20026;-73
2022/03/09 05:37:50;;;;;;;14.90;13.32;;;-3.00;99.90;;;;;;5019065;28;20403;-73
2022/03/09 05:40:15;;;;;;;17.08;13.65;;;-3.00;99.90;;;;;;5023772;28;20029;-74
2022/03/09 05:42:43;;;;;;;16.02;13.93;;;-3.00;99.90;;;;;;5032252;28;20400;-74
2022/03/09 05:45:09;;;;;;;15.88;13.00;;;-3.20;99.90;;;;;;5023148;28;20032;-74
2022/03/09 05:47:35;;;;;;;16.95;13.82;;;-3.20;99.90;;;;;;5018398;28;20058;-73
2022/03/09 05:50:00;;;;;;;16.08;14.05;;;-3.10;99.90;;;;;;5023478;28;20396;-75
2022/03/09 05:52:26;;;;;;;18.05;12.18;;;-3.10;99.90;;;;;;5026746;28;20500;-75
2022/03/09 05:54:52;;;;;;;17.35;14.13;;;-3.30;99.90;;;;;;5024601;28;20021;-75
2022/03/09 05:57:19;;;;;;;17.38;14.55;;;-3.30;99.90;;;;;;5016786;28;20125;-75
2022/03/09 05:59:45;;;;;;;20.05;14.75;;;-3.30;99.90;;;;;;5024807;28;20495;-74
2022/03/09 06:02:11;;;;;;;16.08;13.32;;;-3.30;99.90;;;;;;5020698;28;20029;-75
2022/03/09 06:04:36;;;;;;;15.88;13.45;;;-3.30;99.90;;;;;;5025001;28;20211;-75
2022/03/09 06:07:02;;;;;;;19.92;14.88;;;-3.20;99.90;;;;;;5025221;28;20021;-75
2022/03/09 06:09:29;;;;;;;16.02;13.98;;;-3.30;99.90;;;;;;5024202;28;20029;-75
2022/03/09 06:11:55;;;;;;;16.17;13.57;;;-3.30;99.90;;;;;;5019321;28;20483;-75
2022/03/09 06:14:20;;;;;;;17.90;14.73;;;-3.30;99.90;;;;;;5022491;28;20041;-75
2022/03/09 06:16:49;;;;;;;20.55;15.02;;;-3.30;99.90;;;;;;5024540;28;20606;-72
2022/03/09 06:19:15;;;;;;;16.80;14.65;;;-3.20;99.90;;;;;;5025870;28;20057;-75
2022/03/09 06:21:41;;;;;;;20.98;14.25;;;-3.20;99.90;;;;;;5020289;28;20040;-74
2022/03/09 06:24:07;;;;;;;21.98;15.25;;;-3.10;99.90;;;;;;5021247;28;20415;-74
2022/03/09 06:26:32;;;;;;;22.23;13.75;;;-3.10;99.90;;;;;;5025938;28;20052;-74
2022/03/09 06:28:58;;;;;;;24.05;16.13;;;-3.10;99.90;;;;;;5024683;28;20037;-74
2022/03/09 06:31:23;;;;;;;19.00;15.57;;;-3.00;99.90;;;;;;5014807;28;20037;-74
2022/03/09 06:33:50;;;;;;;21.00;16.27;;;-2.90;99.90;;;;;;5014002;28;20034;-74
2022/03/09 06:36:16;;;;;;;23.65;15.93;;;-2.90;99.90;;;;;;5014254;28;20026;-74
2022/03/09 06:38:41;;;;;;;23.58;18.30;;;-2.90;99.90;;;;;;5025588;28;20052;-75
2022/03/09 06:41:07;;;;;;;31.02;23.90;;;-2.80;99.90;;;;;;5020269;28;20543;-75
2022/03/09 06:43:33;;;;;;;26.65;21.83;;;-2.60;99.90;;;;;;5021750;28;20064;-74
2022/03/09 06:45:58;;;;;;;21.98;18.35;;;-2.50;99.90;;;;;;5017486;28;20025;-74
2022/03/09 06:48:24;;;;;;;25.75;20.20;;;-2.50;99.90;;;;;;5021969;28;20058;-74
2022/03/09 06:50:49;;;;;;;23.10;18.25;;;-2.50;99.90;;;;;;5025339;28;20480;-75
2022/03/09 06:53:15;;;;;;;25.83;19.67;;;-2.40;99.90;;;;;;5025276;28;20025;-75
2022/03/09 06:55:40;;;;;;;25.25;19.75;;;-2.30;99.90;;;;;;5020196;28;20034;-75
2022/03/09 06:58:06;;;;;;;25.20;19.85;;;-2.20;99.90;;;;;;5021887;28;20164;-75
2022/03/09 07:00:31;;;;;;;25.88;18.27;;;-2.10;99.90;;;;;;5025140;28;20021;-75
2022/03/09 07:02:57;;;;;;;20.50;16.48;;;-2.00;99.90;;;;;;5023692;28;20022;-75
2022/03/09 07:05:23;;;;;;;20.98;16.85;;;-1.90;99.90;;;;;;5013709;28;20400;-75
2022/03/09 07:07:48;;;;;;;20.23;17.73;;;-1.90;99.90;;;;;;5017267;28;20492;-75
2022/03/09 07:10:14;;;;;;;19.48;16.77;;;-1.80;99.90;;;;;;5016502;28;20026;-75
2022/03/09 07:12:41;;;;;;;20.42;17.13;;;-1.70;99.90;;;;;;5021921;28;20037;-74
2022/03/09 07:15:08;;;;;;;34.05;26.95;;;-1.60;99.90;;;;;;5030003;28;20407;-74
2022/03/09 07:17:34;;;;;;;36.72;27.95;;;-1.50;99.90;;;;;;5020090;28;20032;-74
2022/03/09 07:19:59;;;;;;;48.53;26.25;;;-1.30;99.90;;;;;;5026311;28;20030;-74
2022/03/09 07:22:25;;;;;;;37.58;27.98;;;-1.30;99.90;;;;;;5024265;28;20025;-71
2022/03/09 07:24:50;;;;;;;31.38;24.00;;;-1.30;99.90;;;;;;5028291;28;20104;-74
2022/03/09 07:27:16;;;;;;;18.13;16.23;;;-1.20;99.90;;;;;;5013007;28;20026;-75
2022/03/09 07:29:41;;;;;;;20.60;17.20;;;-1.10;99.90;;;;;;5015651;28;20060;-75
2022/03/09 07:32:08;;;;;;;20.15;16.70;;;-1.00;99.90;;;;;;5025171;28;20022;-75
2022/03/09 07:34:35;;;;;;;22.90;19.83;;;-0.90;99.90;;;;;;5013767;28;20026;-74
2022/03/09 07:37:01;;;;;;;24.90;21.23;;;-0.70;99.90;;;;;;5020585;28;20057;-75
2022/03/09 07:39:28;;;;;;;25.70;17.80;;;-0.60;99.90;;;;;;5018825;28;20052;-74
2022/03/09 07:41:55;;;;;;;28.90;21.60;;;-0.50;99.90;;;;;;5021352;28;20463;-75
2022/03/09 07:44:21;;;;;;;62.53;42.40;;;-0.50;99.90;;;;;;5025066;28;20087;-73
2022/03/09 07:46:47;;;;;;;33.13;23.58;;;-0.30;99.90;;;;;;5012605;28;20030;-74
2022/03/09 07:49:13;;;;;;;27.90;19.50;;;-0.20;99.90;;;;;;5011333;28;20537;-75
2022/03/09 07:51:39;;;;;;;19.67;16.65;;;-0.10;99.90;;;;;;5023580;28;20037;-75
2022/03/09 07:54:04;;;;;;;19.65;16.95;;;0.10;99.90;;;;;;5017755;28;20060;-74
2022/03/09 07:56:30;;;;;;;21.88;19.05;;;0.00;99.90;;;;;;5019648;28;20022;-74
2022/03/09 07:58:55;;;;;;;22.63;17.90;;;0.10;99.90;;;;;;5012427;28;20030;-74
2022/03/09 08:01:21;;;;;;;19.30;17.30;;;0.20;99.90;;;;;;5023384;28;20025;-74
2022/03/09 08:03:47;;;;;;;22.13;17.63;;;0.20;99.90;;;;;;5018963;28;20100;-74
2022/03/09 08:06:12;;;;;;;20.13;17.70;;;0.20;99.90;;;;;;5019552;28;20105;-74
2022/03/09 08:08:38;;;;;;;19.17;16.95;;;0.30;99.90;;;;;;5025738;28;20631;-75
2022/03/09 08:11:03;;;;;;;18.67;15.80;;;0.40;99.90;;;;;;5021727;28;20108;-74
2022/03/09 08:13:29;;;;;;;18.38;16.23;;;0.50;99.90;;;;;;5014458;28;20030;-74
2022/03/09 08:15:55;;;;;;;20.35;16.05;;;0.60;99.90;;;;;;5023201;28;20029;-74
2022/03/09 08:18:20;;;;;;;18.13;15.05;;;0.70;99.90;;;;;;5018617;28;20048;-74
2022/03/09 08:20:46;;;;;;;17.92;13.32;;;0.80;99.90;;;;;;5020816;28;20036;-74
2022/03/09 08:23:11;;;;;;;18.13;12.68;;;0.90;99.90;;;;;;5025404;28;20468;-75
2022/03/09 08:25:37;;;;;;;17.45;12.68;;;1.00;99.90;;;;;;5021926;28;20036;-75
2022/03/09 08:28:03;;;;;;;17.42;12.02;;;1.10;99.90;;;;;;5018659;28;20418;-75
2022/03/09 08:30:29;;;;;;;16.55;13.07;;;1.20;99.90;;;;;;5019049;28;20037;-74
2022/03/09 08:32:54;;;;;;;12.98;11.63;;;1.30;99.90;;;;;;5025153;28;20053;-74
2022/03/09 08:35:20;;;;;;;18.42;13.10;;;1.40;99.90;;;;;;5023168;28;20080;-74
2022/03/09 08:37:45;;;;;;;17.38;14.20;;;1.60;99.90;;;;;;5018464;28;20032;-75
2022/03/09 08:40:12;;;;;;;17.05;14.23;;;1.70;99.90;;;;;;5020448;28;20450;-74
2022/03/09 08:42:38;;;;;;;15.68;12.30;;;1.90;99.90;;;;;;5025016;28;20021;-74
2022/03/09 08:45:04;;;;;;;15.77;13.70;;;2.00;99.90;;;;;;5010678;28;20026;-74
2022/03/09 08:47:30;;;;;;;15.02;13.15;;;2.10;99.90;;;;;;5014682;28;20509;-75
2022/03/09 08:49:57;;;;;;;15.73;12.70;;;2.40;99.90;;;;;;5031455;28;20033;-75
2022/03/09 08:52:23;;;;;;;15.95;12.00;;;2.60;99.90;;;;;;5013832;28;20026;-75
2022/03/09 08:54:55;;;;;;;16.10;11.98;;;2.80;99.90;;;;;;5013600;28;20484;-75
2022/03/09 08:57:21;;;;;;;17.60;12.45;;;2.90;99.90;;;;;;5022870;28;20032;-73
2022/03/09 08:59:47;;;;;;;18.00;12.60;;;2.90;99.90;;;;;;5024040;28;20026;-75
2022/03/09 09:02:12;;;;;;;14.73;13.15;;;2.90;99.90;;;;;;5028934;28;20080;-75
2022/03/09 09:04:38;;;;;;;14.13;11.77;;;3.10;99.90;;;;;;5026805;28;20026;-75
2022/03/09 09:07:05;;;;;;;16.70;12.60;;;3.30;99.90;;;;;;5020285;28;20112;-74
2022/03/09 09:09:32;;;;;;;17.75;12.27;;;3.30;99.90;;;;;;5025651;28;20499;-74
2022/03/09 09:11:59;;;;;;;16.23;12.50;;;3.40;99.90;;;;;;5022063;28;20070;-74
2022/03/09 09:14:25;;;;;;;17.42;12.15;;;3.40;99.90;;;;;;5023468;28;20041;-74
2022/03/09 09:16:51;;;;;;;16.98;12.43;;;3.60;99.90;;;;;;5027421;28;20030;-75
2022/03/09 09:19:17;;;;;;;13.98;12.38;;;3.80;99.90;;;;;;5027452;28;20151;-75
2022/03/09 09:21:43;;;;;;;17.90;12.63;;;3.80;99.90;;;;;;5017518;28;20108;-75
2022/03/09 09:24:08;;;;;;;18.27;12.95;;;3.80;99.90;;;;;;5013915;28;20522;-76
2022/03/09 09:26:34;;;;;;;13.52;11.18;;;4.00;99.90;;;;;;5014592;28;20040;-76
2022/03/09 09:28:59;;;;;;;13.93;10.20;;;4.50;99.90;;;;;;5015542;28;20030;-75
2022/03/09 09:31:25;;;;;;;11.35;10.13;;;4.70;99.90;;;;;;5013956;28;20056;-75
2022/03/09 09:33:51;;;;;;;17.50;10.95;;;4.80;99.90;;;;;;5017635;28;20038;-76
2022/03/09 09:36:16;;;;;;;15.07;10.85;;;5.00;99.90;;;;;;5016442;28;20044;-75
2022/03/09 09:38:42;;;;;;;12.80;10.25;;;5.00;99.90;;;;;;5019232;28;20472;-75
2022/03/09 09:41:14;;;;;;;13.52;10.48;;;4.90;99.90;;;;;;5019368;28;20101;-75
2022/03/09 09:43:40;;;;;;;13.85;10.30;;;5.00;99.90;;;;;;5013727;28;20018;-75
2022/03/09 09:46:06;;;;;;;12.32;10.20;;;5.30;99.90;;;;;;5017808;28;20043;-75
2022/03/09 09:48:32;;;;;;;12.32;9.88;;;5.30;99.90;;;;;;5014818;28;20022;-75
2022/03/09 09:50:58;;;;;;;11.98;9.73;;;5.30;99.90;;;;;;5027535;28;20471;-75
2022/03/09 09:53:27;;;;;;;9.93;8.73;;;5.60;99.90;;;;;;5014775;28;20026;-74
2022/03/09 09:55:53;;;;;;;10.68;8.57;;;5.90;99.90;;;;;;5008943;28;20037;-75
2022/03/09 09:58:20;;;;;;;11.10;8.45;;;5.90;99.90;;;;;;5021239;28;20539;-75
2022/03/09 10:00:45;;;;;;;11.15;8.88;;;5.70;99.90;;;;;;5021591;28;20009;-75
2022/03/09 10:03:11;;;;;;;12.02;9.02;;;6.30;99.90;;;;;;5019919;28;20500;-75
2022/03/09 10:05:37;;;;;;;11.35;9.02;;;6.10;99.90;;;;;;5026090;28;20546;-75
2022/03/09 10:08:06;;;;;;;11.65;8.77;;;6.00;99.90;;;;;;5026146;28;20510;-75
2022/03/09 10:10:40;;;;;;;10.55;8.30;;;6.40;99.90;;;;;;5049310;28;20039;-74
2022/03/09 10:13:14;;;;;;;10.82;8.82;;;6.30;99.90;;;;;;5020958;28;20029;-74
2022/03/09 10:15:41;;;;;;;12.25;9.63;;;6.10;99.90;;;;;;5024512;28;20057;-75
2022/03/09 10:18:18;;;;;;;13.23;9.25;;;6.30;99.90;;;;;;5027459;28;20030;-75
2022/03/09 10:20:45;;;;;;;16.02;9.85;;;6.60;99.90;;;;;;5025304;28;20088;-75
2022/03/09 10:23:11;;;;;;;13.88;8.20;;;6.40;99.90;;;;;;5015914;28;20034;-75
2022/03/09 10:25:38;;;;;;;12.27;8.50;;;6.40;99.90;;;;;;5014133;28;20029;-75
2022/03/09 10:28:09;;;;;;;13.95;9.93;;;6.60;99.90;;;;;;5019062;28;20040;-74
2022/03/09 10:30:39;;;;;;;12.70;8.95;;;6.50;99.90;;;;;;5020825;28;20063;-74
2022/03/09 10:33:12;;;;;;;12.98;9.00;;;6.80;99.10;;;;;;5042545;28;20026;-74
2022/03/09 10:35:47;;;;;;;12.55;9.15;;;6.90;98.60;;;;;;5014822;28;20042;-74
2022/03/09 10:38:16;;;;;;;11.60;8.77;;;7.00;97.80;;;;;;5024814;28;20030;-75
2022/03/09 10:40:45;;;;;;;12.07;9.43;;;6.80;98.10;;;;;;5026802;28;20030;-74
2022/03/09 10:43:17;;;;;;;12.00;8.73;;;7.20;97.50;;;;;;5012536;28;20029;-74
2022/03/09 10:46:09;;;;;;;13.02;9.43;;;6.80;97.40;;;;;;5031734;28;20030;-75
2022/03/09 10:48:48;;;;;;;12.23;9.93;;;6.90;99.50;;;;;;5026435;28;20357;-75
2022/03/09 10:51:25;;;;;;;13.98;10.05;;;6.80;97.90;;;;;;5010377;28;20502;-74
2022/03/09 10:53:50;;;;;;;11.15;9.85;;;7.10;98.60;;;;;;5015841;28;20037;-74
2022/03/09 10:56:19;;;;;;;12.10;10.10;;;7.30;97.90;;;;;;5013445;28;20026;-75
2022/03/09 10:58:45;;;;;;;15.63;9.57;;;7.30;98.40;;;;;;5025484;28;20539;-75
2022/03/09 11:01:15;;;;;;;12.07;9.38;;;7.30;98.00;;;;;;5021719;28;20116;-75
2022/03/09 11:03:43;;;;;;;14.95;9.27;;;7.10;98.00;;;;;;5029609;28;20018;-74
2022/03/09 11:06:09;;;;;;;11.63;9.82;;;6.90;97.70;;;;;;5013482;28;20057;-75
2022/03/09 11:08:37;;;;;;;11.25;9.43;;;7.00;97.10;;;;;;5044818;28;20057;-75
2022/03/09 11:11:04;;;;;;;12.57;9.63;;;7.20;96.70;;;;;;5023781;28;20028;-74
2022/03/09 11:13:32;;;;;;;12.40;10.07;;;7.30;96.60;;;;;;5018680;28;20113;-75
2022/03/09 11:15:58;;;;;;;13.73;10.32;;;7.10;97.30;;;;;;5021908;28;20037;-74
2022/03/09 11:18:26;;;;;;;14.63;9.95;;;6.90;96.40;;;;;;5024291;28;20018;-75
2022/03/09 11:20:54;;;;;;;10.38;9.30;;;7.00;97.20;;;;;;5038792;28;20022;-75
2022/03/09 11:23:20;;;;;;;12.95;9.48;;;7.30;96.60;;;;;;5018397;28;20029;-74
2022/03/09 11:26:01;;;;;;;14.65;10.55;;;7.40;96.70;;;;;;5020751;28;20025;-75
2022/03/09 11:28:30;;;;;;;13.30;9.88;;;7.50;96.80;;;;;;5015994;28;20056;-76
2022/03/09 11:31:05;;;;;;;12.75;9.85;;;7.50;96.60;;;;;;5019324;28;20042;-75
2022/03/09 11:33:50;;;;;;;12.13;10.00;;;7.50;96.60;;;;;;5023515;28;20029;-75
2022/03/09 11:36:21;;;;;;;12.75;9.88;;;7.70;96.80;;;;;;5018855;28;20052;-76
2022/03/09 11:38:49;;;;;;;11.75;10.48;;;7.70;95.50;;;;;;5015914;28;20020;-75
2022/03/09 11:41:15;;;;;;;14.35;10.25;;;7.80;95.50;;;;;;5012060;28;20392;-76
2022/03/09 11:43:41;;;;;;;14.27;9.43;;;7.70;95.50;;;;;;5010371;28;20018;-76
2022/03/09 11:46:06;;;;;;;14.40;10.43;;;7.90;95.00;;;;;;5016498;28;20516;-76
2022/03/09 11:48:58;;;;;;;15.32;10.45;;;7.60;95.50;;;;;;5017523;28;20116;-76
2022/03/09 11:51:26;;;;;;;13.63;10.70;;;8.10;95.70;;;;;;5016016;28;20108;-76
2022/03/09 11:53:54;;;;;;;13.07;10.27;;;8.30;94.90;;;;;;5023933;28;20042;-75
2022/03/09 11:56:25;;;;;;;13.82;10.00;;;8.10;95.10;;;;;;5009447;28;20501;-76
2022/03/09 11:59:19;;;;;;;14.15;11.00;;;8.20;94.70;;;;;;5023563;28;20105;-76
2022/03/09 12:02:04;;;;;;;14.00;10.95;;;8.10;94.30;;;;;;5010191;28;20037;-76
2022/03/09 12:04:42;;;;;;;12.23;9.68;;;8.80;95.00;;;;;;5005072;28;20018;-76
2022/03/09 12:07:35;;;;;;;13.00;10.63;;;9.50;93.50;;;;;;5010461;28;20037;-76
2022/03/09 12:10:05;;;;;;;12.55;9.90;;;10.10;92.90;;;;;;5021417;28;20018;-77
2022/03/09 12:12:32;;;;;;;12.65;10.48;;;10.50;91.60;;;;;;5023828;28;20061;-76
2022/03/09 12:15:09;;;;;;;11.02;9.40;;;10.60;92.00;;;;;;5012166;28;20384;-77
2022/03/09 12:17:39;;;;;;;14.07;10.10;;;11.30;90.30;;;;;;5005193;28;20041;-76
2022/03/09 12:20:31;;;;;;;12.68;9.43;;;12.10;90.50;;;;;;5011441;28;20022;-74
2022/03/09 12:22:56;;;;;;;14.52;10.35;;;12.60;90.30;;;;;;5009179;28;20373;-74
2022/03/09 12:25:44;;;;;;;13.00;9.70;;;12.20;89.40;;;;;;5011388;28;20025;-74
2022/03/09 12:28:22;;;;;;;12.32;9.60;;;12.80;86.20;;;;;;5012205;28;20030;-73
2022/03/09 12:30:48;;;;;;;13.90;10.55;;;12.40;82.80;;;;;;5010562;28;20030;-74
2022/03/09 12:33:31;;;;;;;11.43;10.10;;;13.00;84.50;;;;;;5019069;28;20026;-73